createdAt,value
2017-12-05T00:01:54.454Z,100759.88
2017-12-05T00:07:57.962Z,100745.78
2017-12-05T00:14:02.294Z,100764.91
2017-12-05T00:20:05.797Z,100763.31
2017-12-05T00:26:10.155Z,100747.53
2017-12-05T00:32:13.829Z,100743.05
2017-12-05T00:38:18.139Z,100746.98
2017-12-05T00:44:22.517Z,100742.39
2017-12-05T00:50:26.567Z,100741.47
2017-12-05T00:56:30.238Z,100745.90
2017-12-05T01:02:33.766Z,100750.80
2017-12-05T01:08:37.411Z,100751.45
2017-12-05T01:14:41.711Z,100754.31
2017-12-05T01:20:45.242Z,100758.45
2017-12-05T01:26:49.542Z,100761.33
2017-12-05T01:32:53.292Z,100764.73
2017-12-05T01:38:56.964Z,100756.09
2017-12-05T01:45:00.514Z,100770.31
2017-12-05T01:51:05.225Z,100767.64
2017-12-05T01:57:11.086Z,100773.73
2017-12-05T02:03:14.783Z,100769.80
2017-12-05T02:09:18.290Z,100765.69
2017-12-05T02:15:22.735Z,100761.70
2017-12-05T02:21:26.440Z,100757.23
2017-12-05T02:27:30.007Z,100763.97
2017-12-05T02:33:33.664Z,100759.89
2017-12-05T02:39:37.318Z,100757.14
2017-12-05T02:45:40.853Z,100761.89
2017-12-05T02:51:44.517Z,100765.21
2017-12-05T02:57:48.034Z,100773.27
2017-12-05T03:03:51.613Z,100774.45
2017-12-05T03:09:55.150Z,100766.20
2017-12-05T03:15:58.662Z,100771.30
2017-12-05T03:22:02.196Z,100775.16
2017-12-05T03:28:05.772Z,100772.00
2017-12-05T03:34:09.325Z,100772.56
2017-12-05T03:40:12.890Z,100772.08
2017-12-05T03:46:16.439Z,100778.12
2017-12-05T03:52:20.338Z,100785.63
2017-12-05T03:58:24.284Z,100782.54
2017-12-05T04:04:27.826Z,100783.45
2017-12-05T04:10:31.339Z,100787.09
2017-12-05T04:16:36.066Z,100785.20
2017-12-05T04:22:39.717Z,100785.31
2017-12-05T04:28:43.282Z,100794.30
2017-12-05T04:34:46.857Z,100789.27
2017-12-05T04:40:50.522Z,100790.31
2017-12-05T04:46:55.811Z,100783.65
2017-12-05T04:52:59.326Z,100787.95
2017-12-05T04:59:02.990Z,100789.83
2017-12-05T05:05:06.498Z,100788.91
2017-12-05T05:11:10.045Z,100792.05
2017-12-05T05:17:13.735Z,100798.59
2017-12-05T05:23:17.469Z,100793.77
2017-12-05T05:29:21.781Z,100796.29
2017-12-05T05:35:26.379Z,100800.04
2017-12-05T05:41:30.235Z,100809.28
2017-12-05T05:47:33.780Z,100814.30
2017-12-05T05:53:38.155Z,100823.61
2017-12-05T05:59:41.931Z,100825.73
2017-12-05T06:05:45.451Z,100838.27
2017-12-05T06:11:48.999Z,100833.01
2017-12-05T06:17:53.444Z,100846.80
2017-12-05T06:23:57.054Z,100839.19
2017-12-05T06:30:00.567Z,100847.75
2017-12-05T06:36:04.148Z,100855.77
2017-12-05T06:42:08.430Z,100850.83
2017-12-05T06:48:11.947Z,100854.26
2017-12-05T06:54:16.267Z,100852.09
2017-12-05T07:00:19.767Z,100854.61
2017-12-05T07:06:24.311Z,100871.78
2017-12-05T07:12:27.852Z,100869.51
2017-12-05T07:18:31.349Z,100871.02
2017-12-05T07:24:34.917Z,100879.86
2017-12-05T07:30:38.449Z,100875.09
2017-12-05T07:36:42.016Z,100882.98
2017-12-05T07:42:45.573Z,100878.08
2017-12-05T07:48:49.857Z,100878.18
2017-12-05T07:54:53.848Z,100888.83
2017-12-05T08:00:57.395Z,100883.92
2017-12-05T08:07:00.927Z,100885.95
2017-12-05T08:13:04.510Z,100887.15
2017-12-05T08:19:08.775Z,100890.41
2017-12-05T08:25:13.123Z,100887.83
2017-12-05T08:31:16.910Z,100887.50
2017-12-05T08:37:21.667Z,100893.02
2017-12-05T08:43:25.251Z,100896.76
2017-12-05T08:49:29.588Z,100901.65
2017-12-05T08:55:33.110Z,100895.43
2017-12-05T09:01:36.715Z,100903.30
2017-12-05T09:07:40.210Z,100904.98
2017-12-05T09:13:43.798Z,100911.98
2017-12-05T09:19:47.581Z,100905.98
2017-12-05T09:25:51.254Z,100910.55
2017-12-05T09:31:55.900Z,100907.76
2017-12-05T09:37:59.568Z,100906.86
2017-12-05T09:44:03.084Z,100905.97
2017-12-05T09:50:06.582Z,100906.03
2017-12-05T09:56:11.027Z,100900.98
2017-12-05T10:02:14.639Z,100887.74
2017-12-05T10:08:18.927Z,100886.41
2017-12-05T10:14:22.467Z,100886.98
2017-12-05T10:20:26.057Z,100883.24
2017-12-05T10:26:30.027Z,100890.75
2017-12-05T10:32:33.566Z,100895.52
2017-12-05T10:38:37.079Z,100881.16
2017-12-05T10:44:40.584Z,100881.25
2017-12-05T10:50:44.231Z,100889.16
2017-12-05T10:56:48.664Z,100883.94
2017-12-05T11:02:52.310Z,100890.25
2017-12-05T11:08:55.944Z,100899.80
2017-12-05T11:14:59.468Z,100894.22
2017-12-05T11:21:03.801Z,100880.81
2017-12-05T11:27:07.351Z,100877.65
2017-12-05T11:33:10.914Z,100883.78
2017-12-05T11:39:14.483Z,100893.57
2017-12-05T11:45:18.098Z,100900.36
2017-12-05T11:51:21.713Z,100896.18
2017-12-05T11:57:26.313Z,100900.54
2017-12-05T12:03:29.946Z,100889.55
2017-12-05T12:09:34.319Z,100883.24
2017-12-05T12:15:37.843Z,100870.06
2017-12-05T12:21:41.564Z,100875.48
2017-12-05T12:27:45.247Z,100869.09
2017-12-05T12:33:48.768Z,100870.59
2017-12-05T12:39:53.742Z,100868.19
2017-12-05T12:45:57.570Z,100868.41
2017-12-05T12:52:01.131Z,100871.20
2017-12-05T12:58:04.977Z,100865.18
2017-12-05T13:04:08.507Z,100866.02
2017-12-05T13:10:12.979Z,100870.78
2017-12-05T13:16:16.582Z,100876.84
2017-12-05T13:22:20.179Z,100871.01
2017-12-05T13:28:24.741Z,100868.42
2017-12-05T13:34:28.311Z,100859.66
2017-12-05T13:40:31.839Z,100860.50
2017-12-05T13:46:35.478Z,100859.24
2017-12-05T13:52:39.044Z,100851.86
2017-12-05T13:58:42.600Z,100864.77
2017-12-05T14:04:46.114Z,100849.76
2017-12-05T14:10:49.650Z,100849.95
2017-12-05T14:16:53.663Z,100845.53
2017-12-05T14:22:57.989Z,100844.20
2017-12-05T14:29:01.583Z,100844.61
2017-12-05T14:35:05.127Z,100840.00
2017-12-05T14:41:08.662Z,100847.20
2017-12-05T14:47:12.222Z,100850.44
2017-12-05T14:53:15.910Z,100854.93
2017-12-05T14:59:19.456Z,100859.01
2017-12-05T15:05:23.212Z,100860.53
2017-12-05T15:11:26.843Z,100857.93
2017-12-05T15:17:30.379Z,100856.75
2017-12-05T15:23:34.673Z,100853.93
2017-12-05T15:29:38.215Z,100859.76
2017-12-05T15:35:41.778Z,100850.50
2017-12-05T15:41:45.445Z,100844.52
2017-12-05T15:47:49.039Z,100849.36
2017-12-05T15:53:52.571Z,100853.52
2017-12-05T15:59:56.150Z,100851.41
2017-12-05T16:05:59.675Z,100853.16
2017-12-05T16:12:03.189Z,100852.86
2017-12-05T16:18:07.548Z,100850.99
2017-12-05T16:24:11.858Z,100847.94
2017-12-05T16:30:15.946Z,100847.67
2017-12-05T16:36:19.517Z,100856.84
2017-12-05T16:42:23.127Z,100859.84
2017-12-05T16:48:26.681Z,100867.08
2017-12-05T16:54:30.384Z,100871.64
2017-12-05T17:00:34.058Z,100874.23
2017-12-05T17:06:37.619Z,100873.95
2017-12-05T17:12:41.140Z,100875.22
2017-12-05T17:18:44.826Z,100874.49
2017-12-05T17:24:48.523Z,100869.39
2017-12-05T17:30:52.936Z,100860.33
2017-12-05T17:36:57.507Z,100860.30
2017-12-05T17:43:01.034Z,100861.83
2017-12-05T17:49:04.582Z,100860.30
2017-12-05T17:55:08.899Z,100863.30
2017-12-05T18:01:12.475Z,100859.83
2017-12-05T18:07:16.142Z,100864.32
2017-12-05T18:13:19.687Z,100854.92
2017-12-05T18:19:23.352Z,100854.16
2017-12-05T18:25:27.022Z,100855.30
2017-12-05T18:31:31.395Z,100858.47
2017-12-05T18:37:35.098Z,100864.14
2017-12-05T18:43:38.612Z,100849.14
2017-12-05T18:49:42.968Z,100843.84
2017-12-05T18:55:48.279Z,100848.64
2017-12-05T19:01:52.263Z,100850.05
2017-12-05T19:07:56.610Z,100846.18
2017-12-05T19:14:00.144Z,100847.38
2017-12-05T19:20:03.997Z,100845.63
2017-12-05T19:26:07.581Z,100838.17
2017-12-05T19:32:11.303Z,100836.27
2017-12-05T19:38:14.884Z,100836.33
2017-12-05T19:44:18.418Z,100833.39
2017-12-05T19:50:22.093Z,100825.41
2017-12-05T19:56:26.461Z,100820.22
2017-12-05T20:02:30.031Z,100819.07
2017-12-05T20:08:33.619Z,100823.84
2017-12-05T20:14:37.929Z,100814.89
2017-12-05T20:20:41.434Z,100816.75
2017-12-05T20:26:45.079Z,100816.16
2017-12-05T20:32:48.628Z,100819.16
2017-12-05T20:38:53.525Z,100831.58
2017-12-05T20:44:57.101Z,100832.08
2017-12-05T20:51:01.403Z,100831.58
2017-12-05T20:57:04.968Z,100827.09
2017-12-05T21:03:08.503Z,100826.67
2017-12-05T21:09:12.986Z,100827.59
2017-12-05T21:15:16.541Z,100819.41
2017-12-05T21:21:20.110Z,100823.90
2017-12-05T21:27:23.684Z,100821.65
2017-12-05T21:33:27.420Z,100818.07
2017-12-05T21:39:31.190Z,100823.32
2017-12-05T21:45:34.720Z,100810.53
2017-12-05T21:51:38.260Z,100816.92
2017-12-05T21:57:42.593Z,100816.92
2017-12-05T22:03:46.127Z,100806.53
2017-12-05T22:09:49.698Z,100799.41
2017-12-05T22:15:53.714Z,100803.10
2017-12-05T22:21:58.048Z,100807.03
2017-12-05T22:28:01.985Z,100809.77
2017-12-05T22:34:05.526Z,100823.25
2017-12-05T22:40:09.388Z,100816.31
2017-12-05T22:46:12.967Z,100816.17
2017-12-05T22:52:16.502Z,100823.25
2017-12-05T22:58:20.364Z,100815.83
2017-12-05T23:04:24.027Z,100803.41
2017-12-05T23:10:27.597Z,100803.41
2017-12-05T23:16:31.159Z,100805.92
2017-12-05T23:22:35.008Z,100791.07
2017-12-05T23:28:38.667Z,100806.49
2017-12-05T23:34:42.246Z,100805.58
2017-12-05T23:40:45.801Z,100798.27
2017-12-05T23:46:49.328Z,100801.09
2017-12-05T23:52:53.337Z,100802.50
2017-12-05T23:58:57.679Z,100798.16
